SAM5378 LICZ-EGUN
Flight info
| Callsign | SAM5378 |
|---|---|
| Flight time | N/A |
| Altitude | 32000 |
| Route | LIBRO DCT DORAS DCT RAVAL DCT OLKIS DCT CANNE DCT BEGAR DCT SUTAL N852 DIK M624 BUB L608 SASKI DCT XAMAN P49 LAPRA |
| Aircraft | B77L/H-SDE1E2E3FGHIJ2J3J4J5M1RWXY/LB1D1 |
Departure
| Time | 2026-04-26 16:23 |
|---|---|
| Airport | Sigonella Navy Air Base (LICZ) |
Arrival
| Time | N/A |
|---|---|
| Airport | RAF Mildenhall (EGUN) |
| Time | Latitude | Longitude | Altitude | Speed | Heading |
|---|---|---|---|---|---|
| 2026-04-26 15:53 | 37.40568 | 14.93163 | 98 ft | 0 kts | 120° |
| 2026-04-26 16:12 | 37.40571 | 14.93158 | 98 ft | 2 kts | 124° |
| 2026-04-26 16:13 | 37.40581 | 14.93144 | 98 ft | 2 kts | 149° |
| 2026-04-26 16:13 | 37.40595 | 14.93137 | 98 ft | 2 kts | 169° |
| 2026-04-26 16:13 | 37.40610 | 14.93136 | 99 ft | 2 kts | 189° |
| 2026-04-26 16:13 | 37.40624 | 14.93141 | 99 ft | 2 kts | 210° |
| 2026-04-26 16:14 | 37.40630 | 14.93146 | 99 ft | 0 kts | 212° |
| 2026-04-26 16:16 | 37.40627 | 14.93144 | 99 ft | 1 kts | 210° |
| 2026-04-26 16:16 | 37.40612 | 14.93134 | 99 ft | 3 kts | 208° |
| 2026-04-26 16:16 | 37.40588 | 14.93117 | 98 ft | 4 kts | 209° |
| 2026-04-26 16:17 | 37.40559 | 14.93095 | 98 ft | 5 kts | 218° |
| 2026-04-26 16:17 | 37.40546 | 14.93055 | 98 ft | 4 kts | 271° |
| 2026-04-26 16:17 | 37.40546 | 14.93010 | 98 ft | 5 kts | 265° |
| 2026-04-26 16:17 | 37.40539 | 14.92970 | 98 ft | 3 kts | 253° |
| 2026-04-26 16:18 | 37.40531 | 14.92944 | 99 ft | 3 kts | 246° |
| 2026-04-26 16:18 | 37.40502 | 14.92862 | 99 ft | 11 kts | 246° |
| 2026-04-26 16:19 | 37.40373 | 14.92649 | 100 ft | 5 kts | 180° |
| 2026-04-26 16:19 | 37.40358 | 14.92646 | 99 ft | 0 kts | 192° |
| 2026-04-26 16:19 | 37.40332 | 14.92633 | 99 ft | 0 kts | 229° |
| 2026-04-26 16:20 | 37.40324 | 14.92617 | 99 ft | 9 kts | 250° |
| 2026-04-26 16:20 | 37.40366 | 14.92183 | 104 ft | 35 kts | 279° |
| 2026-04-26 16:20 | 37.40417 | 14.91839 | 107 ft | 44 kts | 278° |
| 2026-04-26 16:21 | 37.40461 | 14.91439 | 103 ft | 41 kts | 278° |
| 2026-04-26 16:21 | 37.40498 | 14.91116 | 109 ft | 41 kts | 278° |
| 2026-04-26 16:21 | 37.40520 | 14.90946 | 112 ft | 2 kts | 254° |
| 2026-04-26 16:21 | 37.40501 | 14.90951 | 112 ft | 4 kts | 102° |
| 2026-04-26 16:22 | 37.40500 | 14.91038 | 111 ft | 16 kts | 99° |
| 2026-04-26 16:22 | 37.40449 | 14.91467 | 103 ft | 83 kts | 98° |
| 2026-04-26 16:22 | 37.40332 | 14.92492 | 102 ft | 156 kts | 98° |
| 2026-04-26 16:22 | 37.40152 | 14.94067 | 371 ft | 202 kts | 97° |
| 2026-04-26 16:23 | 37.39896 | 14.95758 | 1381 ft | 196 kts | 103° |
| 2026-04-26 16:23 | 37.39516 | 14.97430 | 1981 ft | 205 kts | 107° |
| 2026-04-26 16:23 | 37.39124 | 14.99199 | 2372 ft | 225 kts | 98° |
| 2026-04-26 16:23 | 37.38979 | 15.01254 | 2799 ft | 245 kts | 90° |
| 2026-04-26 16:24 | 37.38857 | 15.03450 | 3469 ft | 258 kts | 95° |
| 2026-04-26 16:24 | 37.38623 | 15.05696 | 4297 ft | 264 kts | 97° |
| 2026-04-26 16:24 | 37.38360 | 15.08000 | 5258 ft | 275 kts | 98° |
| 2026-04-26 16:24 | 37.37735 | 15.10196 | 6732 ft | 275 kts | 123° |
| 2026-04-26 16:25 | 37.36431 | 15.11859 | 7949 ft | 279 kts | 148° |
| 2026-04-26 16:25 | 37.34601 | 15.12676 | 8942 ft | 288 kts | 176° |
| 2026-04-26 16:25 | 37.32647 | 15.12310 | 9961 ft | 291 kts | 205° |
| 2026-04-26 16:25 | 37.31033 | 15.10817 | 10841 ft | 299 kts | 232° |
| 2026-04-26 16:26 | 37.30129 | 15.08422 | 11479 ft | 316 kts | 261° |
| 2026-04-26 16:26 | 37.30104 | 15.06593 | 11901 ft | 327 kts | 280° |
| 2026-04-26 16:26 | 37.31521 | 15.03142 | 12790 ft | 350 kts | 316° |
| 2026-04-26 16:26 | 37.33515 | 15.01350 | 13491 ft | 366 kts | 329° |
| 2026-04-26 16:27 | 37.35786 | 14.99735 | 14290 ft | 380 kts | 330° |
| 2026-04-26 16:27 | 37.38043 | 14.97926 | 15062 ft | 393 kts | 321° |
| 2026-04-26 16:27 | 37.40058 | 14.95537 | 15802 ft | 405 kts | 310° |
| 2026-04-26 16:27 | 37.41706 | 14.92649 | 16645 ft | 414 kts | 300° |
| 2026-04-26 16:28 | 37.43109 | 14.89497 | 17594 ft | 420 kts | 298° |
| 2026-04-26 16:28 | 37.44531 | 14.86246 | 18572 ft | 425 kts | 298° |
| 2026-04-26 16:28 | 37.45944 | 14.83034 | 19527 ft | 428 kts | 298° |
| 2026-04-26 16:28 | 37.47398 | 14.79740 | 20420 ft | 433 kts | 298° |
| 2026-04-26 16:29 | 37.48861 | 14.76436 | 21243 ft | 438 kts | 298° |
| 2026-04-26 16:29 | 37.50345 | 14.73090 | 22050 ft | 442 kts | 298° |
| 2026-04-26 16:29 | 37.51850 | 14.69697 | 22803 ft | 447 kts | 298° |
| 2026-04-26 16:29 | 37.53367 | 14.66279 | 23547 ft | 450 kts | 298° |
| 2026-04-26 16:30 | 37.54894 | 14.62839 | 24228 ft | 455 kts | 298° |
| 2026-04-26 16:30 | 37.56434 | 14.59365 | 24851 ft | 459 kts | 298° |
| 2026-04-26 16:30 | 37.58002 | 14.55827 | 25464 ft | 463 kts | 298° |
| 2026-04-26 16:30 | 37.59581 | 14.52309 | 26096 ft | 466 kts | 301° |
| 2026-04-26 16:31 | 37.61476 | 14.48988 | 26714 ft | 470 kts | 309° |
| 2026-04-26 16:31 | 37.63765 | 14.46033 | 27254 ft | 476 kts | 317° |
| 2026-04-26 16:31 | 37.66421 | 14.43519 | 27797 ft | 482 kts | 326° |
| 2026-04-26 16:31 | 37.69346 | 14.41406 | 28320 ft | 487 kts | 329° |
| 2026-04-26 16:32 | 37.72342 | 14.39358 | 28865 ft | 489 kts | 329° |
| 2026-04-26 16:32 | 37.74304 | 14.38018 | 29212 ft | 490 kts | 329° |
| 2026-04-26 16:32 | 37.78334 | 14.35254 | 29799 ft | 493 kts | 329° |
| 2026-04-26 16:32 | 37.81335 | 14.33189 | 30119 ft | 494 kts | 328° |
| 2026-04-26 16:33 | 37.87376 | 14.29018 | 30152 ft | 492 kts | 328° |
| 2026-04-26 16:33 | 37.93384 | 14.24854 | 30151 ft | 492 kts | 328° |
| 2026-04-26 16:34 | 37.99378 | 14.20689 | 30152 ft | 492 kts | 328° |
| 2026-04-26 16:34 | 38.05350 | 14.16528 | 30150 ft | 493 kts | 328° |
| 2026-04-26 16:35 | 38.11395 | 14.12308 | 30145 ft | 494 kts | 328° |
| 2026-04-26 16:35 | 38.17413 | 14.08098 | 30145 ft | 495 kts | 328° |
| 2026-04-26 16:36 | 38.23435 | 14.03878 | 30138 ft | 496 kts | 329° |
| 2026-04-26 16:36 | 38.29510 | 13.99612 | 30139 ft | 498 kts | 329° |
| 2026-04-26 16:37 | 38.35543 | 13.95367 | 30139 ft | 497 kts | 329° |
| 2026-04-26 16:37 | 38.40568 | 13.91825 | 30137 ft | 496 kts | 329° |
| 2026-04-26 16:38 | 38.47639 | 13.86831 | 30139 ft | 498 kts | 329° |
| 2026-04-26 16:38 | 38.53730 | 13.82520 | 30136 ft | 500 kts | 329° |
| 2026-04-26 16:39 | 38.59779 | 13.78231 | 30139 ft | 501 kts | 329° |
| 2026-04-26 16:39 | 38.65906 | 13.73877 | 30139 ft | 502 kts | 329° |
| 2026-04-26 16:40 | 38.71978 | 13.69554 | 30139 ft | 504 kts | 329° |
| 2026-04-26 16:40 | 38.78108 | 13.65183 | 30137 ft | 504 kts | 329° |
| 2026-04-26 16:41 | 38.84242 | 13.60798 | 30138 ft | 504 kts | 329° |
| 2026-04-26 16:41 | 38.90379 | 13.56404 | 30137 ft | 506 kts | 330° |
| 2026-04-26 16:42 | 38.96505 | 13.52008 | 30137 ft | 506 kts | 330° |
| 2026-04-26 16:42 | 39.02642 | 13.47595 | 30142 ft | 506 kts | 330° |
| 2026-04-26 16:43 | 39.08783 | 13.43171 | 30133 ft | 506 kts | 330° |
| 2026-04-26 16:43 | 39.14933 | 13.38731 | 30149 ft | 505 kts | 330° |
| 2026-04-26 16:44 | 39.21036 | 13.34316 | 30145 ft | 505 kts | 329° |
| 2026-04-26 16:44 | 39.27174 | 13.29867 | 30146 ft | 504 kts | 330° |
| 2026-04-26 16:45 | 39.33275 | 13.25436 | 30147 ft | 505 kts | 330° |
| 2026-04-26 16:45 | 39.39417 | 13.20966 | 30134 ft | 505 kts | 330° |
| 2026-04-26 16:46 | 39.45516 | 13.16518 | 30150 ft | 505 kts | 330° |
| 2026-04-26 16:46 | 39.51640 | 13.12044 | 30136 ft | 505 kts | 330° |
| 2026-04-26 16:47 | 39.57730 | 13.07584 | 30151 ft | 505 kts | 330° |
| 2026-04-26 16:47 | 39.63967 | 13.03373 | 30144 ft | 504 kts | 336° |
| 2026-04-26 16:48 | 39.70408 | 12.99714 | 30145 ft | 506 kts | 336° |
| 2026-04-26 16:48 | 39.76843 | 12.96015 | 30141 ft | 508 kts | 336° |
| 2026-04-26 16:49 | 39.83295 | 12.92267 | 30145 ft | 508 kts | 336° |
| 2026-04-26 16:49 | 39.89738 | 12.88501 | 30139 ft | 509 kts | 336° |
| 2026-04-26 16:50 | 39.96183 | 12.84718 | 30133 ft | 509 kts | 336° |
| 2026-04-26 16:50 | 40.02637 | 12.80916 | 30145 ft | 508 kts | 336° |
| 2026-04-26 16:51 | 40.09058 | 12.77122 | 30136 ft | 510 kts | 336° |
| 2026-04-26 16:51 | 40.15550 | 12.73277 | 30137 ft | 510 kts | 336° |
| 2026-04-26 16:52 | 40.20947 | 12.70074 | 30138 ft | 511 kts | 336° |
| 2026-04-26 16:52 | 40.28484 | 12.65589 | 30137 ft | 510 kts | 336° |
| 2026-04-26 16:53 | 40.34896 | 12.61766 | 30137 ft | 509 kts | 336° |
| 2026-04-26 16:53 | 40.41332 | 12.57921 | 30137 ft | 510 kts | 336° |
| 2026-04-26 16:54 | 40.47777 | 12.54061 | 30137 ft | 509 kts | 336° |
| 2026-04-26 16:54 | 40.54245 | 12.50180 | 30137 ft | 509 kts | 336° |
| 2026-04-26 16:55 | 40.60659 | 12.46323 | 30137 ft | 511 kts | 336° |
| 2026-04-26 16:55 | 40.67093 | 12.42446 | 30135 ft | 510 kts | 336° |
| 2026-04-26 16:56 | 40.76751 | 12.36609 | 30137 ft | 510 kts | 335° |
| 2026-04-26 16:57 | 40.83203 | 12.32700 | 30138 ft | 509 kts | 335° |
| 2026-04-26 16:57 | 40.92839 | 12.26847 | 30136 ft | 510 kts | 335° |
| 2026-04-26 16:58 | 40.98206 | 12.23578 | 30136 ft | 510 kts | 335° |
| 2026-04-26 16:59 | 41.08930 | 12.17029 | 30137 ft | 510 kts | 335° |
| 2026-04-26 17:00 | 41.21841 | 12.09112 | 30139 ft | 509 kts | 335° |
| 2026-04-26 17:00 | 41.31427 | 12.03213 | 30140 ft | 509 kts | 335° |
| 2026-04-26 17:01 | 41.37847 | 11.99251 | 30140 ft | 509 kts | 335° |
| 2026-04-26 17:01 | 41.44289 | 11.95266 | 30140 ft | 508 kts | 335° |
| 2026-04-26 17:02 | 41.50663 | 11.91316 | 30136 ft | 508 kts | 334° |
| 2026-04-26 17:02 | 41.57098 | 11.87319 | 30124 ft | 508 kts | 334° |
| 2026-04-26 17:03 | 41.63461 | 11.83357 | 30131 ft | 508 kts | 334° |
| 2026-04-26 17:03 | 41.69903 | 11.79338 | 30125 ft | 508 kts | 334° |
| 2026-04-26 17:04 | 41.76440 | 11.75788 | 30124 ft | 509 kts | 345° |
| 2026-04-26 17:04 | 41.83465 | 11.74716 | 30122 ft | 510 kts | 1° |
| 2026-04-26 17:05 | 41.90418 | 11.76447 | 30115 ft | 512 kts | 18° |
| 2026-04-26 17:05 | 41.96754 | 11.80873 | 30113 ft | 516 kts | 35° |
| 2026-04-26 17:06 | 42.01866 | 11.87593 | 30109 ft | 520 kts | 52° |
| 2026-04-26 17:06 | 42.05465 | 11.96049 | 30118 ft | 522 kts | 64° |
| 2026-04-26 17:07 | 42.08570 | 12.04847 | 30117 ft | 521 kts | 64° |
| 2026-04-26 17:07 | 42.11689 | 12.13726 | 29837 ft | 524 kts | 64° |
| 2026-04-26 17:08 | 42.13229 | 12.18127 | 29427 ft | 520 kts | 64° |
| 2026-04-26 17:08 | 42.14752 | 12.22552 | 29012 ft | 515 kts | 66° |
| 2026-04-26 17:08 | 42.15894 | 12.27065 | 28607 ft | 511 kts | 75° |
| 2026-04-26 17:08 | 42.16519 | 12.31725 | 28203 ft | 509 kts | 83° |
| 2026-04-26 17:09 | 42.16620 | 12.36502 | 27795 ft | 507 kts | 92° |
| 2026-04-26 17:09 | 42.16388 | 12.39662 | 27524 ft | 506 kts | 98° |
| 2026-04-26 17:09 | 42.15236 | 12.45734 | 26996 ft | 504 kts | 109° |
| 2026-04-26 17:09 | 42.13786 | 12.49992 | 26594 ft | 502 kts | 120° |